Time;durP1;ratioP1;P1;durP2;ratioP2;P2;SDS_P1;SDS_P2;PMS_P1;PMS_P2;Temp;Humidity;BMP_temperature;BMP_pressure;BME280_temperature;BME280_humidity;BME280_pressure;Samples;Min_cycle;Max_cycle;Signal;HPM_P1;HPM_P2
2024/01/01 00:00:43;;;;;;;50.58;33.13;;;6.90;99.90;;;;;;4938200;29;20487;-78
2024/01/01 00:03:08;;;;;;;52.72;34.72;;;6.90;99.90;;;;;;4937979;29;20035;-78
2024/01/01 00:05:36;;;;;;;56.55;37.90;;;6.90;99.90;;;;;;4920694;29;20031;-78
2024/01/01 00:08:02;;;;;;;61.85;38.40;;;6.90;99.90;;;;;;4916466;29;20492;-79
2024/01/01 00:10:28;;;;;;;57.42;37.63;;;6.90;99.90;;;;;;4939204;28;20126;-76
2024/01/01 00:12:54;;;;;;;51.60;32.97;;;6.90;99.90;;;;;;4948177;28;20071;-78
2024/01/01 00:15:20;;;;;;;49.85;33.00;;;6.90;99.90;;;;;;4937932;29;20126;-79
2024/01/01 00:17:46;;;;;;;53.42;33.13;;;6.90;99.90;;;;;;4938397;29;20034;-78
2024/01/01 00:20:12;;;;;;;56.63;35.92;;;6.90;99.90;;;;;;4937873;29;20076;-78
2024/01/01 00:22:39;;;;;;;49.78;31.50;;;6.90;99.90;;;;;;4937539;29;20115;-76
2024/01/01 00:25:05;;;;;;;52.95;34.15;;;6.80;99.90;;;;;;4937184;29;20488;-74
2024/01/01 00:27:34;;;;;;;81.07;48.65;;;6.80;99.90;;;;;;4920552;29;20135;-79
2024/01/01 00:30:03;;;;;;;95.78;52.35;;;6.70;99.90;;;;;;4937644;29;20031;-78
2024/01/01 00:32:30;;;;;;;67.38;42.88;;;6.70;99.90;;;;;;4937855;29;20034;-81
2024/01/01 00:34:56;;;;;;;50.78;32.17;;;6.60;99.90;;;;;;4937591;29;20372;-79
2024/01/01 00:37:22;;;;;;;45.42;27.98;;;6.70;99.90;;;;;;4919827;29;20075;-78
2024/01/01 00:39:48;;;;;;;52.05;29.65;;;6.70;99.90;;;;;;4937110;29;20023;-78
2024/01/01 00:42:14;;;;;;;43.10;27.30;;;6.70;99.90;;;;;;4937527;29;20031;-80
2024/01/01 00:44:42;;;;;;;42.58;27.63;;;6.80;99.90;;;;;;4926508;28;20501;-76
2024/01/01 00:47:08;;;;;;;47.63;27.50;;;6.80;99.90;;;;;;4937559;29;20071;-81
2024/01/01 00:49:34;;;;;;;50.55;31.38;;;6.90;99.90;;;;;;4937331;29;20043;-78
2024/01/01 00:52:00;;;;;;;45.33;28.00;;;6.80;99.90;;;;;;4936813;29;20035;-79
2024/01/01 00:54:28;;;;;;;54.38;33.47;;;6.80;99.90;;;;;;4920009;29;20115;-79
2024/01/01 00:56:55;;;;;;;44.15;26.98;;;6.90;99.90;;;;;;4937106;29;20031;-79
2024/01/01 00:59:21;;;;;;;45.70;28.75;;;6.90;99.90;;;;;;4927679;29;20103;-76
2024/01/01 01:01:48;;;;;;;40.47;24.65;;;7.00;99.90;;;;;;4933020;29;20027;-79
2024/01/01 01:04:14;;;;;;;39.38;26.25;;;7.00;99.90;;;;;;4938294;29;20020;-79
2024/01/01 01:06:40;;;;;;;37.70;22.73;;;7.10;99.90;;;;;;4935473;29;20539;-78
2024/01/01 01:09:06;;;;;;;32.60;18.08;;;7.20;99.90;;;;;;4936429;29;20023;-80
2024/01/01 01:11:33;;;;;;;28.95;19.33;;;7.30;99.90;;;;;;4919772;29;20492;-79
2024/01/01 01:13:59;;;;;;;32.60;18.60;;;7.40;99.90;;;;;;4914120;29;20029;-79
2024/01/01 01:16:25;;;;;;;32.03;20.45;;;7.40;99.90;;;;;;4929550;29;20023;-79
2024/01/01 01:18:51;;;;;;;35.10;21.38;;;7.40;99.90;;;;;;4936809;29;20016;-75
2024/01/01 01:21:17;;;;;;;37.05;24.30;;;7.40;99.90;;;;;;4936284;29;20054;-80
2024/01/01 01:23:43;;;;;;;36.47;21.83;;;7.30;99.90;;;;;;4936367;29;20512;-76
2024/01/01 01:26:10;;;;;;;31.23;19.10;;;7.30;99.90;;;;;;4936443;29;20063;-75
2024/01/01 01:28:36;;;;;;;33.28;20.15;;;7.30;99.90;;;;;;4935875;29;20066;-77
2024/01/01 01:31:02;;;;;;;30.27;17.23;;;7.30;99.90;;;;;;4902793;29;20068;-76
2024/01/01 01:33:28;;;;;;;29.42;15.23;;;7.40;99.90;;;;;;4935326;29;20524;-76
2024/01/01 01:35:54;;;;;;;27.23;15.68;;;7.40;99.90;;;;;;4918754;29;20122;-74
2024/01/01 01:38:21;;;;;;;24.42;14.07;;;7.40;99.90;;;;;;4918006;29;20035;-77
2024/01/01 01:40:47;;;;;;;30.95;14.88;;;7.50;99.90;;;;;;4935106;29;20034;-78
2024/01/01 01:43:21;;;;;;;30.45;18.67;;;7.60;99.90;;;;;;4917749;29;20031;-76
2024/01/01 01:45:48;;;;;;;27.63;16.52;;;7.60;99.90;;;;;;4918034;29;20031;-77
2024/01/01 01:48:18;;;;;;;25.92;15.13;;;7.70;99.90;;;;;;4914050;29;20456;-75
2024/01/01 01:50:45;;;;;;;21.85;14.57;;;7.80;99.90;;;;;;4934953;29;20429;-78
2024/01/01 01:53:15;;;;;;;25.90;14.65;;;7.80;99.90;;;;;;4918128;29;20114;-78
2024/01/01 01:55:45;;;;;;;19.67;12.60;;;7.90;99.90;;;;;;4916342;29;20024;-75
2024/01/01 01:58:11;;;;;;;20.20;12.50;;;8.00;99.90;;;;;;4920680;29;20020;-78
2024/01/01 02:00:38;;;;;;;20.27;13.00;;;8.00;99.90;;;;;;4914889;29;20028;-77
2024/01/01 02:03:06;;;;;;;25.83;14.90;;;8.10;99.90;;;;;;4929023;29;20042;-77
2024/01/01 02:05:32;;;;;;;24.55;15.45;;;8.10;99.90;;;;;;4921845;29;20028;-78
2024/01/01 02:08:00;;;;;;;29.95;16.05;;;8.20;99.90;;;;;;4923570;28;20036;-79
2024/01/01 02:10:26;;;;;;;31.80;17.58;;;8.10;99.90;;;;;;4921971;29;20048;-77
2024/01/01 02:12:52;;;;;;;25.73;15.85;;;8.10;99.90;;;;;;4921823;29;20088;-77
2024/01/01 02:15:20;;;;;;;29.80;16.42;;;8.10;99.90;;;;;;4919657;29;20135;-78
2024/01/01 02:17:46;;;;;;;34.60;17.85;;;8.10;99.90;;;;;;4929550;29;20193;-77
2024/01/01 02:20:13;;;;;;;30.33;17.60;;;8.10;99.90;;;;;;4933723;29;20032;-77
2024/01/01 02:22:39;;;;;;;39.88;16.48;;;8.10;99.90;;;;;;4933136;29;20144;-77
2024/01/01 02:25:06;;;;;;;39.47;20.33;;;8.00;99.90;;;;;;4934098;29;20027;-77
2024/01/01 02:27:36;;;;;;;36.40;19.58;;;8.00;99.90;;;;;;4917478;29;20044;-75
2024/01/01 02:30:02;;;;;;;33.00;20.02;;;7.90;99.90;;;;;;4934693;29;20099;-74
2024/01/01 02:32:28;;;;;;;35.65;19.02;;;7.90;99.90;;;;;;4934867;29;20032;-77
2024/01/01 02:34:54;;;;;;;32.75;19.25;;;7.90;99.90;;;;;;4934588;29;20084;-75
2024/01/01 02:37:20;;;;;;;34.78;19.40;;;8.00;99.90;;;;;;4917579;29;20050;-75
2024/01/01 02:39:46;;;;;;;34.92;18.80;;;8.00;99.90;;;;;;4920526;29;20035;-76
2024/01/01 02:42:12;;;;;;;30.83;17.35;;;8.00;99.90;;;;;;4917335;29;20040;-75
2024/01/01 02:44:38;;;;;;;29.23;18.27;;;8.00;99.90;;;;;;4917399;29;20098;-76
2024/01/01 02:47:04;;;;;;;36.38;19.17;;;8.00;99.90;;;;;;4917238;29;20052;-76
2024/01/01 02:49:30;;;;;;;32.30;19.33;;;8.00;99.90;;;;;;4934486;29;20032;-77
2024/01/01 02:51:56;;;;;;;37.17;18.83;;;8.10;99.90;;;;;;4917607;29;20050;-76
2024/01/01 02:54:22;;;;;;;31.08;18.88;;;8.10;99.90;;;;;;4934404;29;20483;-78
2024/01/01 02:56:48;;;;;;;31.92;18.77;;;8.00;99.90;;;;;;4933841;29;20028;-77
2024/01/01 02:59:14;;;;;;;24.92;14.93;;;8.10;99.90;;;;;;4934457;29;20024;-77
2024/01/01 03:01:40;;;;;;;26.15;14.05;;;8.10;99.90;;;;;;4917156;29;20123;-78
2024/01/01 03:04:06;;;;;;;25.90;13.57;;;8.10;99.90;;;;;;4917710;29;20119;-78
2024/01/01 03:06:32;;;;;;;23.95;13.40;;;8.20;99.90;;;;;;4934101;29;20047;-76
2024/01/01 03:08:58;;;;;;;29.45;16.58;;;8.10;99.90;;;;;;4917547;29;20039;-77
2024/01/01 03:11:24;;;;;;;27.23;15.98;;;8.20;99.90;;;;;;4933570;29;20078;-77
2024/01/01 03:13:50;;;;;;;29.55;17.58;;;8.20;99.90;;;;;;4917225;29;20043;-78
2024/01/01 03:16:16;;;;;;;26.35;15.30;;;8.20;99.90;;;;;;4916831;29;20115;-77
2024/01/01 03:18:42;;;;;;;25.45;15.05;;;8.20;99.90;;;;;;4934390;29;20361;-78
2024/01/01 03:21:07;;;;;;;25.83;14.75;;;8.20;99.90;;;;;;4916841;29;20091;-76
2024/01/01 03:23:33;;;;;;;25.77;14.07;;;8.20;99.90;;;;;;4934179;29;20028;-76
2024/01/01 03:25:59;;;;;;;25.17;14.60;;;8.20;99.90;;;;;;4933779;29;20063;-76
2024/01/01 03:28:26;;;;;;;24.38;14.65;;;8.20;99.90;;;;;;4917062;29;20028;-77
2024/01/01 03:30:52;;;;;;;30.05;16.35;;;8.20;99.90;;;;;;4935295;29;20781;-77
2024/01/01 03:33:18;;;;;;;24.60;14.38;;;8.30;99.90;;;;;;4920255;29;20038;-76
2024/01/01 03:35:45;;;;;;;24.95;15.30;;;8.30;99.90;;;;;;4937362;29;20414;-77
2024/01/01 03:38:11;;;;;;;24.52;15.55;;;8.30;99.90;;;;;;4937548;29;20039;-77
2024/01/01 03:40:36;;;;;;;25.08;15.38;;;8.40;99.90;;;;;;4937116;29;20031;-77
2024/01/01 03:43:02;;;;;;;24.27;14.90;;;8.40;99.90;;;;;;4937365;29;20035;-78
2024/01/01 03:45:28;;;;;;;22.08;13.80;;;8.40;99.90;;;;;;4937646;29;20035;-78
2024/01/01 03:47:54;;;;;;;25.17;13.77;;;8.40;99.90;;;;;;4937207;29;20391;-77
2024/01/01 03:50:20;;;;;;;22.00;13.68;;;8.50;99.90;;;;;;4937196;29;20040;-79
2024/01/01 03:52:47;;;;;;;26.63;14.25;;;8.50;99.90;;;;;;4937575;29;20162;-78
2024/01/01 03:55:15;;;;;;;25.05;14.02;;;8.50;99.90;;;;;;4936940;29;20031;-77
2024/01/01 03:57:41;;;;;;;25.38;15.27;;;8.60;99.90;;;;;;4937181;29;20079;-76
2024/01/01 04:00:08;;;;;;;25.50;15.77;;;8.60;99.90;;;;;;4936886;29;20036;-75
2024/01/01 04:02:35;;;;;;;29.08;14.15;;;8.60;99.90;;;;;;4937117;29;20495;-76
2024/01/01 04:05:00;;;;;;;25.55;14.85;;;8.60;99.90;;;;;;4919962;29;20114;-76
2024/01/01 04:07:26;;;;;;;33.42;16.75;;;8.60;99.90;;;;;;4936855;29;20130;-77
2024/01/01 04:09:52;;;;;;;29.05;16.30;;;8.60;99.90;;;;;;4919462;29;20519;-75
2024/01/01 04:12:18;;;;;;;31.15;16.60;;;8.50;99.90;;;;;;4919790;29;20506;-76
2024/01/01 04:14:44;;;;;;;31.60;16.65;;;8.50;99.90;;;;;;4936586;29;20075;-76
2024/01/01 04:17:11;;;;;;;33.08;15.73;;;8.40;99.90;;;;;;4936726;29;20087;-76
2024/01/01 04:19:36;;;;;;;35.13;17.00;;;8.40;99.90;;;;;;4936651;29;20023;-77
2024/01/01 04:22:03;;;;;;;31.20;17.77;;;8.40;99.90;;;;;;4937048;29;20376;-77
2024/01/01 04:24:29;;;;;;;29.48;17.77;;;8.40;99.90;;;;;;4936753;29;20024;-74
2024/01/01 04:26:55;;;;;;;32.75;17.48;;;8.30;99.90;;;;;;4936178;29;20322;-76
2024/01/01 04:29:20;;;;;;;33.20;18.33;;;8.30;99.90;;;;;;4936545;29;20024;-76
2024/01/01 04:31:46;;;;;;;32.58;19.30;;;8.30;99.90;;;;;;4936294;29;20031;-75
2024/01/01 04:34:12;;;;;;;29.00;16.90;;;8.20;99.90;;;;;;4936475;29;20055;-78
2024/01/01 04:36:40;;;;;;;28.63;16.42;;;8.20;99.90;;;;;;4936389;29;20111;-78
2024/01/01 04:39:06;;;;;;;29.30;16.42;;;8.20;99.90;;;;;;4936416;29;20447;-77
2024/01/01 04:41:31;;;;;;;27.90;15.48;;;8.20;99.90;;;;;;4935933;29;20039;-77
2024/01/01 04:43:57;;;;;;;28.20;16.90;;;8.10;99.90;;;;;;4935506;29;20044;-77
2024/01/01 04:46:23;;;;;;;32.22;16.25;;;8.20;99.90;;;;;;4936213;29;20032;-79
2024/01/01 04:48:49;;;;;;;28.98;17.05;;;8.20;99.90;;;;;;4935665;29;20419;-75
2024/01/01 04:51:15;;;;;;;29.58;16.45;;;8.20;99.90;;;;;;4935924;29;20504;-75
2024/01/01 04:53:41;;;;;;;29.45;17.08;;;8.20;99.90;;;;;;4935874;29;20159;-77
2024/01/01 04:56:06;;;;;;;30.80;17.30;;;8.20;99.90;;;;;;4936219;29;20114;-77
2024/01/01 04:58:33;;;;;;;28.23;16.55;;;8.20;99.90;;;;;;4935385;29;20072;-77
2024/01/01 05:01:00;;;;;;;31.90;16.98;;;8.20;99.90;;;;;;4936211;29;20473;-77
2024/01/01 05:03:26;;;;;;;30.48;17.13;;;8.20;99.90;;;;;;4935582;29;20098;-76
2024/01/01 05:05:52;;;;;;;25.65;14.85;;;8.20;99.90;;;;;;4936037;29;20163;-76
2024/01/01 05:08:18;;;;;;;30.73;16.35;;;8.20;99.90;;;;;;4935575;29;20487;-76
2024/01/01 05:10:44;;;;;;;29.15;15.65;;;8.30;99.90;;;;;;4935091;29;20109;-76
2024/01/01 05:13:10;;;;;;;26.33;14.50;;;8.30;99.90;;;;;;4934788;29;20034;-78
2024/01/01 05:15:38;;;;;;;29.45;14.82;;;8.40;99.90;;;;;;4934778;29;20028;-77
2024/01/01 05:18:04;;;;;;;24.25;14.57;;;8.40;99.90;;;;;;4934972;29;20089;-77
2024/01/01 05:20:30;;;;;;;26.00;15.23;;;8.40;99.90;;;;;;4934896;29;20035;-75
2024/01/01 05:22:56;;;;;;;24.40;14.75;;;8.50;99.90;;;;;;4934952;29;20211;-76
2024/01/01 05:25:23;;;;;;;35.47;21.92;;;8.60;99.90;;;;;;4934723;29;20093;-75
2024/01/01 05:27:49;;;;;;;31.42;17.05;;;8.60;99.90;;;;;;4934458;29;20038;-78
2024/01/01 05:30:15;;;;;;;28.08;15.82;;;8.70;99.90;;;;;;4934615;29;20024;-78
2024/01/01 05:32:41;;;;;;;24.50;15.23;;;8.70;99.90;;;;;;4934731;29;20066;-78
2024/01/01 05:35:07;;;;;;;22.98;13.40;;;8.80;99.90;;;;;;4934522;29;20027;-77
2024/01/01 05:37:33;;;;;;;24.48;13.73;;;8.80;99.90;;;;;;4934471;29;20015;-78
2024/01/01 05:39:59;;;;;;;22.98;14.18;;;8.90;99.90;;;;;;4934886;29;20094;-77
2024/01/01 05:42:25;;;;;;;22.08;14.55;;;8.90;99.90;;;;;;4934306;29;20027;-76
2024/01/01 05:44:51;;;;;;;23.17;14.65;;;9.00;99.90;;;;;;4934702;29;20032;-79
2024/01/01 05:47:17;;;;;;;22.67;14.20;;;9.00;99.90;;;;;;4934037;29;20052;-77
2024/01/01 05:49:43;;;;;;;23.30;14.43;;;9.10;99.90;;;;;;4934597;29;20417;-79
2024/01/01 05:52:09;;;;;;;23.10;14.93;;;9.10;99.90;;;;;;4934221;29;20024;-79
2024/01/01 05:54:35;;;;;;;23.77;13.95;;;9.10;99.90;;;;;;4934307;29;20028;-76
2024/01/01 05:57:01;;;;;;;25.98;14.32;;;9.10;99.90;;;;;;4933923;29;20066;-76
2024/01/01 05:59:27;;;;;;;23.85;13.38;;;9.20;99.90;;;;;;4934324;29;20086;-78
2024/01/01 06:01:53;;;;;;;23.25;14.23;;;9.20;99.90;;;;;;4933953;29;20032;-78
2024/01/01 06:04:19;;;;;;;23.48;12.63;;;9.20;99.90;;;;;;4934332;29;20020;-78
2024/01/01 06:06:45;;;;;;;21.00;12.32;;;9.20;99.90;;;;;;4934213;29;20043;-76
2024/01/01 06:09:11;;;;;;;22.92;12.18;;;9.20;99.90;;;;;;4933875;29;20028;-75
2024/01/01 06:11:37;;;;;;;22.98;13.77;;;9.20;99.90;;;;;;4891198;29;1277702;-76
2024/01/01 06:14:02;;;;;;;23.45;13.63;;;9.20;99.90;;;;;;4934775;29;20110;-75
2024/01/01 06:16:29;;;;;;;22.13;13.32;;;9.20;99.90;;;;;;4934673;29;20034;-75
2024/01/01 06:18:55;;;;;;;23.30;13.98;;;9.20;99.90;;;;;;4934707;29;20082;-77
2024/01/01 06:21:20;;;;;;;20.48;13.00;;;9.20;99.90;;;;;;4934976;29;20019;-79
2024/01/01 06:23:46;;;;;;;21.23;12.07;;;9.30;99.90;;;;;;4934663;29;20392;-78
2024/01/01 06:26:15;;;;;;;22.27;12.40;;;9.30;99.90;;;;;;4934877;29;20495;-76
2024/01/01 06:28:41;;;;;;;22.20;12.63;;;9.30;99.90;;;;;;4934807;29;20031;-78
2024/01/01 06:31:07;;;;;;;23.65;13.05;;;9.30;99.90;;;;;;4934307;29;20110;-78
2024/01/01 06:33:33;;;;;;;21.92;12.90;;;9.30;99.90;;;;;;4935004;29;20031;-78
2024/01/01 06:35:59;;;;;;;23.08;12.13;;;9.40;99.90;;;;;;4934699;29;20376;-77
2024/01/01 06:38:25;;;;;;;19.35;12.15;;;9.40;99.90;;;;;;4936679;29;20483;-78
2024/01/01 06:40:51;;;;;;;20.77;12.73;;;9.50;99.90;;;;;;4939267;29;20020;-78
2024/01/01 06:43:17;;;;;;;20.42;11.32;;;9.50;99.90;;;;;;4934721;29;20031;-79
2024/01/01 06:45:43;;;;;;;22.50;12.95;;;9.50;99.90;;;;;;4934547;29;20118;-78
2024/01/01 06:48:11;;;;;;;24.55;14.10;;;9.50;99.90;;;;;;4934646;29;20111;-79
2024/01/01 06:50:37;;;;;;;21.65;13.18;;;9.60;99.90;;;;;;4934501;29;20078;-78
2024/01/01 06:53:04;;;;;;;20.15;12.27;;;9.60;99.90;;;;;;4934664;29;20482;-77
2024/01/01 06:55:30;;;;;;;19.65;12.55;;;9.60;99.90;;;;;;4934755;29;20518;-78
2024/01/01 06:57:58;;;;;;;25.15;12.80;;;9.70;99.90;;;;;;4934296;29;20059;-76
2024/01/01 07:00:24;;;;;;;26.15;15.00;;;9.70;99.90;;;;;;4934541;29;20043;-77
2024/01/01 07:02:50;;;;;;;21.10;13.55;;;9.80;99.90;;;;;;4934171;29;20043;-79
2024/01/01 07:05:16;;;;;;;22.33;13.65;;;9.80;99.90;;;;;;4930500;29;20468;-76
2024/01/01 07:07:42;;;;;;;25.60;14.90;;;9.90;99.90;;;;;;4936278;29;20035;-74
2024/01/01 07:10:08;;;;;;;25.05;15.18;;;9.90;99.90;;;;;;4938102;29;20044;-75
2024/01/01 07:12:34;;;;;;;23.50;14.32;;;10.00;99.90;;;;;;4936864;29;20071;-76
2024/01/01 07:15:01;;;;;;;26.50;16.08;;;10.00;99.90;;;;;;4919079;29;20056;-76
2024/01/01 07:17:27;;;;;;;30.85;20.92;;;10.00;99.90;;;;;;4926757;29;20040;-77
2024/01/01 07:19:53;;;;;;;24.98;14.98;;;10.00;99.90;;;;;;4932859;29;20047;-78
2024/01/01 07:22:19;;;;;;;22.80;13.48;;;10.00;99.90;;;;;;4932636;29;20094;-78
2024/01/01 07:24:45;;;;;;;22.80;12.48;;;10.10;99.90;;;;;;4937692;29;20111;-77
2024/01/01 07:27:11;;;;;;;21.75;12.20;;;10.10;99.90;;;;;;4926873;29;20103;-76
2024/01/01 07:29:37;;;;;;;22.42;12.93;;;10.10;99.90;;;;;;4932149;29;20523;-78
2024/01/01 07:32:04;;;;;;;19.50;12.52;;;10.10;99.90;;;;;;4926488;29;20040;-78
2024/01/01 07:34:30;;;;;;;22.48;13.25;;;10.10;99.90;;;;;;4936276;29;20024;-74
2024/01/01 07:36:57;;;;;;;21.77;12.48;;;10.10;99.90;;;;;;4926380;29;20028;-74
2024/01/01 07:39:25;;;;;;;22.15;11.73;;;10.20;99.90;;;;;;4937527;29;20038;-78
2024/01/01 07:41:51;;;;;;;19.55;11.20;;;10.20;99.90;;;;;;4937584;29;20032;-75
2024/01/01 07:44:18;;;;;;;24.33;12.43;;;10.30;99.90;;;;;;4920320;29;20024;-78
2024/01/01 07:46:46;;;;;;;24.40;13.00;;;10.30;99.90;;;;;;4937219;29;20602;-81
2024/01/01 07:49:12;;;;;;;25.25;12.88;;;10.30;99.90;;;;;;4937426;29;20031;-79
2024/01/01 07:51:38;;;;;;;22.27;12.95;;;10.40;99.90;;;;;;4933998;29;20126;-80
2024/01/01 07:54:04;;;;;;;20.42;12.20;;;10.40;99.90;;;;;;4937347;29;20502;-78
2024/01/01 07:56:30;;;;;;;18.60;11.80;;;10.50;99.90;;;;;;4927464;29;20072;-79
2024/01/01 07:58:57;;;;;;;19.50;11.85;;;10.60;99.90;;;;;;4930796;29;20028;-79
2024/01/01 08:01:24;;;;;;;21.50;12.13;;;10.60;99.90;;;;;;4926511;29;20040;-77
2024/01/01 08:03:50;;;;;;;21.27;12.98;;;10.70;99.90;;;;;;4930214;29;20039;-79
2024/01/01 08:06:17;;;;;;;25.98;15.80;;;10.70;99.90;;;;;;4925493;29;20020;-78
2024/01/01 08:08:43;;;;;;;23.25;15.07;;;10.70;99.90;;;;;;4930013;29;20035;-80
2024/01/01 08:11:09;;;;;;;30.40;15.70;;;10.70;99.90;;;;;;4924410;29;20036;-80
2024/01/01 08:13:36;;;;;;;29.90;17.15;;;10.60;99.90;;;;;;4936076;29;20146;-77
2024/01/01 08:16:02;;;;;;;35.70;20.55;;;10.60;99.90;;;;;;4930290;29;20380;-80
2024/01/01 08:18:28;;;;;;;37.42;22.20;;;10.60;99.90;;;;;;4926832;29;20031;-80
2024/01/01 08:20:54;;;;;;;33.70;21.15;;;10.50;99.90;;;;;;4930260;29;20043;-76
2024/01/01 08:23:20;;;;;;;34.85;22.05;;;10.60;99.90;;;;;;4928307;29;20035;-80
2024/01/01 08:25:46;;;;;;;29.48;20.20;;;10.80;99.90;;;;;;4923463;29;20076;-80
2024/01/01 08:28:12;;;;;;;32.33;18.27;;;10.90;99.90;;;;;;4927975;29;20476;-77
2024/01/01 08:30:39;;;;;;;33.08;18.63;;;11.10;99.90;;;;;;4930458;29;20027;-80
2024/01/01 08:33:06;;;;;;;28.52;16.95;;;11.20;99.90;;;;;;4922424;29;20468;-81
2024/01/01 08:35:32;;;;;;;25.65;15.23;;;11.40;99.90;;;;;;4922502;29;20028;-77
2024/01/01 08:37:58;;;;;;;28.13;16.88;;;11.50;99.90;;;;;;4926442;29;20031;-80
2024/01/01 08:40:24;;;;;;;27.70;15.60;;;11.70;99.90;;;;;;4922109;29;20062;-78
2024/01/01 08:42:51;;;;;;;26.80;14.65;;;11.80;99.90;;;;;;4925414;29;20455;-80
2024/01/01 08:45:21;;;;;;;19.95;13.18;;;12.00;99.90;;;;;;4921132;29;20028;-80
2024/01/01 08:47:47;;;;;;;22.75;12.85;;;12.20;99.90;;;;;;4923216;29;20039;-80
2024/01/01 08:50:14;;;;;;;24.75;14.73;;;12.30;99.90;;;;;;4921137;29;20029;-79
2024/01/01 08:52:42;;;;;;;28.73;16.58;;;12.50;99.90;;;;;;4935749;29;20041;-79
2024/01/01 08:55:08;;;;;;;30.67;16.73;;;12.60;99.90;;;;;;4935926;29;20059;-80
2024/01/01 08:57:34;;;;;;;27.13;16.77;;;12.80;99.90;;;;;;4935730;29;20031;-80
2024/01/01 09:00:01;;;;;;;26.08;17.95;;;12.90;99.70;;;;;;4935209;29;20024;-78
2024/01/01 09:02:26;;;;;;;33.75;20.90;;;13.00;99.80;;;;;;4935271;29;20030;-79
2024/01/01 09:04:52;;;;;;;32.10;20.38;;;13.10;99.20;;;;;;4925766;29;20036;-80
2024/01/01 09:07:20;;;;;;;40.88;24.85;;;13.30;99.10;;;;;;4935416;29;20086;-81
2024/01/01 09:09:46;;;;;;;43.38;27.00;;;13.30;98.70;;;;;;4935518;29;20031;-80
2024/01/01 09:12:12;;;;;;;41.33;28.27;;;13.40;98.60;;;;;;4935490;29;20488;-77
2024/01/01 09:14:38;;;;;;;43.67;30.80;;;13.60;98.50;;;;;;4935451;29;20037;-78
2024/01/01 09:17:07;;;;;;;44.70;30.85;;;13.70;98.20;;;;;;4935320;29;20082;-80
2024/01/01 09:19:34;;;;;;;48.08;32.00;;;13.80;98.00;;;;;;4935100;29;20027;-75
2024/01/01 09:22:00;;;;;;;67.35;43.78;;;14.00;98.00;;;;;;4935498;29;20123;-78
2024/01/01 09:24:26;;;;;;;69.03;48.90;;;14.10;97.70;;;;;;4935335;29;20028;-80
2024/01/01 09:26:52;;;;;;;67.97;45.08;;;14.30;98.10;;;;;;4935353;29;20036;-80
2024/01/01 09:29:18;;;;;;;62.90;40.42;;;14.50;96.90;;;;;;4934825;29;20083;-80
2024/01/01 09:31:44;;;;;;;56.65;38.65;;;14.80;96.80;;;;;;4935394;29;20036;-78
2024/01/01 09:34:10;;;;;;;44.53;31.65;;;15.00;96.40;;;;;;4935262;29;20028;-78
2024/01/01 09:36:37;;;;;;;40.03;27.73;;;15.10;96.60;;;;;;4934927;29;20090;-78
2024/01/01 09:39:04;;;;;;;43.38;27.65;;;15.30;95.50;;;;;;4934974;29;20390;-80
2024/01/01 09:41:30;;;;;;;39.30;28.83;;;15.60;95.10;;;;;;4935313;29;20040;-80
2024/01/01 09:43:56;;;;;;;35.33;25.88;;;15.70;94.00;;;;;;4922332;29;20539;-77
2024/01/01 09:46:28;;;;;;;29.20;20.60;;;15.90;94.60;;;;;;4938115;29;20381;-78
2024/01/01 09:48:54;;;;;;;17.70;12.70;;;16.10;94.30;;;;;;4934832;29;20031;-79
2024/01/01 09:51:20;;;;;;;20.25;13.40;;;15.80;94.40;;;;;;4934769;29;20039;-79
2024/01/01 09:53:46;;;;;;;41.10;27.17;;;15.50;93.40;;;;;;4934744;29;20071;-78
2024/01/01 09:56:12;;;;;;;35.05;24.67;;;15.10;95.30;;;;;;4934998;29;20035;-79
2024/01/01 09:58:42;;;;;;;22.42;11.68;;;14.80;96.10;;;;;;4934662;29;20032;-78
2024/01/01 10:01:12;;;;;;;19.63;9.43;;;13.90;96.70;;;;;;4934712;29;20043;-80
2024/01/01 10:03:39;;;;;;;14.88;7.93;;;12.90;98.50;;;;;;4934357;29;20056;-78
2024/01/01 10:06:10;;;;;;;14.02;7.80;;;12.30;99.90;;;;;;4934834;29;20028;-75
2024/01/01 10:08:36;;;;;;;14.10;8.55;;;11.90;99.90;;;;;;4933849;29;20507;-76
2024/01/01 10:11:19;;;;;;;13.10;7.47;;;11.60;99.90;;;;;;4935785;29;20459;-79
2024/01/01 10:13:46;;;;;;;12.48;6.65;;;11.40;99.90;;;;;;4930160;29;20099;-79
2024/01/01 10:16:26;;;;;;;12.40;7.05;;;11.10;99.90;;;;;;4933707;28;20107;-78
2024/01/01 10:18:57;;;;;;;15.23;6.78;;;11.10;99.90;;;;;;4927627;29;20058;-76
2024/01/01 10:21:30;;;;;;;15.88;9.18;;;10.90;99.90;;;;;;4938094;29;20039;-77
2024/01/01 10:24:21;;;;;;;13.50;6.68;;;10.80;99.90;;;;;;4931654;29;20131;-74
2024/01/01 10:26:50;;;;;;;7.47;4.65;;;10.70;99.90;;;;;;4936258;29;20047;-77
2024/01/01 10:29:35;;;;;;;8.75;4.32;;;10.50;99.90;;;;;;4932625;29;20031;-77
2024/01/01 10:32:02;;;;;;;7.57;4.40;;;10.40;99.90;;;;;;4935420;29;20329;-76
2024/01/01 10:34:33;;;;;;;8.30;4.32;;;10.40;99.90;;;;;;4922882;29;20046;-78
2024/01/01 10:37:00;;;;;;;7.95;4.65;;;10.60;99.90;;;;;;4942471;29;20115;-77
2024/01/01 10:39:27;;;;;;;10.27;4.72;;;10.70;99.90;;;;;;4928871;29;20028;-77
2024/01/01 10:41:54;;;;;;;8.45;4.47;;;10.60;99.90;;;;;;4938614;29;20020;-78
2024/01/01 10:44:21;;;;;;;7.45;3.90;;;10.50;99.90;;;;;;4936464;29;20480;-78
2024/01/01 10:46:50;;;;;;;8.45;4.57;;;10.40;99.90;;;;;;4935847;29;20175;-76
2024/01/01 10:49:23;;;;;;;10.40;4.40;;;10.40;99.90;;;;;;4938736;29;20380;-75
2024/01/01 10:51:55;;;;;;;8.40;4.40;;;10.40;99.90;;;;;;4936126;29;20115;-78
2024/01/01 10:54:37;;;;;;;8.13;4.35;;;10.40;99.90;;;;;;4945505;29;20027;-76
2024/01/01 10:57:16;;;;;;;9.18;4.68;;;10.30;99.90;;;;;;4938276;29;20114;-79
2024/01/01 11:00:11;;;;;;;9.82;5.50;;;10.20;99.90;;;;;;4938445;29;20024;-78
2024/01/01 11:02:39;;;;;;;10.55;5.28;;;10.10;99.90;;;;;;4937527;29;20040;-77
2024/01/01 11:05:09;;;;;;;10.80;5.63;;;10.00;99.90;;;;;;4943540;29;20031;-76
2024/01/01 11:07:54;;;;;;;10.88;4.22;;;10.00;99.90;;;;;;4936969;29;20051;-76
2024/01/01 11:10:44;;;;;;;8.85;4.32;;;9.80;99.90;;;;;;4928644;29;20048;-76
2024/01/01 11:13:39;;;;;;;8.32;3.70;;;9.80;99.90;;;;;;4926383;29;20042;-77
2024/01/01 11:16:05;;;;;;;8.13;4.70;;;9.60;99.90;;;;;;4923510;29;20044;-79
2024/01/01 11:18:40;;;;;;;7.32;3.88;;;9.60;99.90;;;;;;4937561;29;20098;-76
2024/01/01 11:21:07;;;;;;;9.40;4.93;;;9.50;99.90;;;;;;4907622;29;20038;-75
2024/01/01 11:23:46;;;;;;;7.95;4.32;;;9.40;99.90;;;;;;4944996;29;20090;-77
2024/01/01 11:26:32;;;;;;;7.43;4.32;;;9.30;99.90;;;;;;4941380;29;20365;-75
2024/01/01 11:29:27;;;;;;;9.98;4.30;;;9.10;99.90;;;;;;4934157;29;20042;-77
2024/01/01 11:32:01;;;;;;;8.82;4.60;;;9.00;99.90;;;;;;4920271;29;20046;-76
2024/01/01 11:34:27;;;;;;;10.23;5.55;;;8.90;99.90;;;;;;4922576;29;20064;-78
2024/01/01 11:36:53;;;;;;;10.05;5.07;;;8.80;99.90;;;;;;4916611;29;20469;-78
2024/01/01 11:39:24;;;;;;;9.57;5.30;;;8.90;99.90;;;;;;4922531;29;20028;-77
2024/01/01 11:41:51;;;;;;;13.07;6.22;;;8.80;99.90;;;;;;4927844;29;20088;-79
2024/01/01 11:44:23;;;;;;;5.78;2.88;;;8.80;99.90;;;;;;4916858;29;20016;-77
2024/01/01 11:46:49;;;;;;;7.40;3.10;;;8.70;99.90;;;;;;4916814;29;20441;-77
2024/01/01 11:49:15;;;;;;;6.72;3.28;;;8.60;99.90;;;;;;4916999;29;20271;-77
2024/01/01 11:51:57;;;;;;;7.82;3.67;;;8.60;99.90;;;;;;4916570;29;20079;-79
2024/01/01 11:54:27;;;;;;;7.53;3.47;;;8.40;99.90;;;;;;4916260;28;20040;-76
2024/01/01 11:56:56;;;;;;;4.97;2.20;;;8.40;99.90;;;;;;4916393;29;20039;-79
2024/01/01 11:59:24;;;;;;;15.15;7.45;;;8.40;99.90;;;;;;4916138;29;20024;-77
2024/01/01 12:01:50;;;;;;;13.20;7.18;;;8.40;99.90;;;;;;4917047;29;20503;-76
2024/01/01 12:04:17;;;;;;;10.80;5.10;;;8.30;99.90;;;;;;4926676;29;20059;-79
2024/01/01 12:06:50;;;;;;;5.38;3.15;;;8.40;99.90;;;;;;4928727;29;20140;-75
2024/01/01 12:09:16;;;;;;;8.88;4.05;;;8.30;99.90;;;;;;4929966;29;20047;-77
2024/01/01 12:11:43;;;;;;;10.35;4.22;;;8.20;99.90;;;;;;4938442;28;20094;-79
2024/01/01 12:14:09;;;;;;;15.63;7.00;;;8.20;99.90;;;;;;4937517;29;20058;-77
2024/01/01 12:16:36;;;;;;;9.98;5.00;;;8.20;99.90;;;;;;4937126;29;20027;-78
2024/01/01 12:19:14;;;;;;;7.80;3.80;;;8.20;99.90;;;;;;4937100;29;20027;-74
2024/01/01 12:21:41;;;;;;;9.48;4.35;;;8.10;99.90;;;;;;4936999;29;20023;-77
2024/01/01 12:24:09;;;;;;;17.30;7.93;;;8.10;99.90;;;;;;4936691;29;20031;-79
2024/01/01 12:26:36;;;;;;;11.60;5.85;;;8.10;99.90;;;;;;4936675;29;20468;-79
2024/01/01 12:29:17;;;;;;;9.68;4.93;;;8.10;99.90;;;;;;4936685;29;20027;-78
2024/01/01 12:31:44;;;;;;;10.65;6.20;;;8.20;99.90;;;;;;4937412;29;20035;-75
2024/01/01 12:34:15;;;;;;;15.15;8.43;;;8.10;99.90;;;;;;4936591;29;20036;-77
2024/01/01 12:36:43;;;;;;;12.98;6.82;;;8.00;99.90;;;;;;4936330;29;20523;-78